Durban, South Africa
Current Conditions -  °F | °C
As of 11:00 PM on Saturday 25 Oct 2014 (Local Time) from FALE Reporting Station
Overcast Overcast  
Wind Chill: 64°   Ceiling: 3500
Heat Index: 64°   Visibility: 6mi
Dew Point: 61°   Wind: 7mph
Humidity: 88%   Direction: 230°SW
Pressure: 30.27"   Gusts: NA
Location:  29.87°S, 30.99°E
Report Text: FALE 252100Z 23006KT 9999 SCT020 OVC035 18/16 Q1025 NOSIG
Loading
Personal Weather Stations






























Interactive Weather Map
Tropical Storm Tracking
New forecast layout! Learn more

10-Day Weather Forecast

Advertisements
Track Severe Weather on mobile